createdAt,value
2018-12-07T00:01:05.452Z,9.93
2018-12-07T00:03:34.800Z,8.77
2018-12-07T00:06:03.771Z,8.83
2018-12-07T00:08:33.109Z,7.70
2018-12-07T00:11:02.390Z,13.20
2018-12-07T00:13:31.741Z,9.28
2018-12-07T00:16:01.050Z,8.63
2018-12-07T00:18:30.679Z,7.90
2018-12-07T00:20:59.595Z,10.03
2018-12-07T00:23:28.451Z,8.27
2018-12-07T00:25:57.693Z,4.27
2018-12-07T00:28:27.047Z,10.43
2018-12-07T00:30:56.426Z,15.93
2018-12-07T00:33:25.791Z,20.17
2018-12-07T00:35:54.731Z,21.63
2018-12-07T00:38:24.022Z,18.20
2018-12-07T00:40:53.372Z,14.77
2018-12-07T00:43:22.309Z,19.40
2018-12-07T00:45:51.571Z,16.20
2018-12-07T00:48:20.851Z,17.37
2018-12-07T00:50:50.161Z,12.57
2018-12-07T00:53:20.055Z,14.60
2018-12-07T00:55:49.403Z,14.47
2018-12-07T00:58:19.327Z,10.00
2018-12-07T01:00:48.776Z,9.77
2018-12-07T01:03:17.731Z,5.90
2018-12-07T01:05:47.012Z,5.57
2018-12-07T01:08:16.328Z,12.90
2018-12-07T01:10:45.668Z,7.57
2018-12-07T01:13:14.947Z,8.38
2018-12-07T01:15:44.487Z,9.47
2018-12-07T01:18:13.807Z,11.17
2018-12-07T01:20:43.076Z,11.00
2018-12-07T01:23:11.986Z,13.83
2018-12-07T01:25:41.161Z,8.10
2018-12-07T01:28:10.139Z,9.77
2018-12-07T01:30:39.370Z,14.23
2018-12-07T01:33:08.323Z,9.87
2018-12-07T01:35:37.660Z,13.80
2018-12-07T01:38:07.159Z,10.30
2018-12-07T01:40:36.448Z,7.12
2018-12-07T01:43:05.763Z,7.62
2018-12-07T01:45:35.064Z,11.37
2018-12-07T01:48:03.999Z,7.80
2018-12-07T01:50:33.271Z,7.70
2018-12-07T01:53:02.616Z,10.53
2018-12-07T01:55:31.924Z,9.38
2018-12-07T01:58:01.464Z,7.10
2018-12-07T02:00:30.799Z,10.63
2018-12-07T02:03:00.120Z,8.57
2018-12-07T02:05:29.443Z,11.13
2018-12-07T02:07:58.643Z,9.30
2018-12-07T02:10:28.059Z,10.78
2018-12-07T02:12:57.304Z,9.17
2018-12-07T02:15:26.717Z,12.50
2018-12-07T02:17:56.168Z,12.67
2018-12-07T02:20:25.492Z,8.10
2018-12-07T02:22:54.768Z,10.87
2018-12-07T02:25:24.069Z,12.40
2018-12-07T02:27:59.579Z,14.77
2018-12-07T02:30:28.467Z,15.80
2018-12-07T02:32:57.673Z,15.47
2018-12-07T02:35:26.936Z,20.68
2018-12-07T02:37:56.272Z,24.67
2018-12-07T02:40:25.547Z,22.33
2018-12-07T02:42:54.852Z,21.40
2018-12-07T02:45:24.180Z,16.05
2018-12-07T02:47:53.491Z,17.40
2018-12-07T02:50:22.837Z,19.70
2018-12-07T02:52:52.134Z,16.60
2018-12-07T02:55:21.018Z,25.20
2018-12-07T02:57:50.245Z,17.07
2018-12-07T03:00:19.206Z,26.80
2018-12-07T03:02:48.441Z,18.13
2018-12-07T03:05:18.319Z,25.43
2018-12-07T03:07:47.597Z,20.93
2018-12-07T03:10:16.888Z,26.97
2018-12-07T03:12:46.176Z,25.90
2018-12-07T03:15:15.536Z,24.32
2018-12-07T03:17:44.835Z,23.90
2018-12-07T03:20:14.147Z,20.70
2018-12-07T03:22:43.534Z,16.77
2018-12-07T03:25:12.800Z,16.03
2018-12-07T03:27:42.091Z,17.53
2018-12-07T03:30:11.420Z,13.40
2018-12-07T03:32:40.757Z,7.07
2018-12-07T03:35:10.141Z,11.17
2018-12-07T03:37:39.440Z,15.20
2018-12-07T03:40:08.880Z,17.87
2018-12-07T03:42:38.173Z,14.23
2018-12-07T03:45:07.259Z,11.67
2018-12-07T03:47:36.652Z,16.50
2018-12-07T03:50:06.184Z,20.60
2018-12-07T03:52:36.213Z,17.50
2018-12-07T03:55:05.669Z,16.87
2018-12-07T03:57:34.982Z,20.20
2018-12-07T04:00:05.323Z,19.80
2018-12-07T04:02:34.671Z,21.10
2018-12-07T04:05:04.089Z,19.83
2018-12-07T04:07:33.380Z,18.32
2018-12-07T04:10:02.707Z,13.97
2018-12-07T04:12:32.034Z,13.40
2018-12-07T04:15:01.348Z,21.67
2018-12-07T04:17:30.679Z,17.63
2018-12-07T04:19:59.630Z,12.70
2018-12-07T04:22:28.870Z,21.13
2018-12-07T04:24:57.811Z,24.50
2018-12-07T04:27:27.047Z,24.83
2018-12-07T04:30:07.463Z,24.47
2018-12-07T04:32:36.764Z,25.83
2018-12-07T04:35:06.125Z,22.00
2018-12-07T04:37:35.463Z,26.10
2018-12-07T04:40:05.262Z,25.87
2018-12-07T04:42:34.616Z,26.85
2018-12-07T04:45:04.363Z,25.83
2018-12-07T04:47:33.683Z,25.00
2018-12-07T04:50:02.652Z,23.07
2018-12-07T04:52:31.523Z,35.53
2018-12-07T04:55:00.754Z,24.73
2018-12-07T04:57:30.132Z,21.05
2018-12-07T04:59:59.462Z,19.70
2018-12-07T05:02:28.400Z,19.50
2018-12-07T05:04:57.686Z,24.40
2018-12-07T05:07:26.957Z,22.13
2018-12-07T05:09:57.102Z,18.93
2018-12-07T05:12:26.401Z,15.38
2018-12-07T05:14:55.692Z,20.30
2018-12-07T05:17:24.987Z,24.23
2018-12-07T05:19:54.333Z,26.33
2018-12-07T05:22:23.348Z,23.33
2018-12-07T05:24:52.664Z,27.57
2018-12-07T05:27:21.964Z,25.43
2018-12-07T05:29:51.281Z,24.00
2018-12-07T05:32:20.767Z,25.27
2018-12-07T05:34:50.144Z,30.70
2018-12-07T05:37:19.456Z,21.30
2018-12-07T05:39:48.812Z,16.30
2018-12-07T05:42:18.152Z,24.63
2018-12-07T05:44:47.459Z,23.87
2018-12-07T05:47:16.864Z,20.17
2018-12-07T05:49:46.190Z,19.33
2018-12-07T05:52:15.491Z,26.10
2018-12-07T05:54:44.839Z,29.47
2018-12-07T05:57:14.208Z,20.80
2018-12-07T05:59:43.580Z,21.13
2018-12-07T06:02:12.929Z,23.73
2018-12-07T06:04:42.231Z,16.83
2018-12-07T06:07:11.214Z,15.50
2018-12-07T06:09:40.444Z,21.20
2018-12-07T06:12:10.034Z,21.33
2018-12-07T06:14:39.374Z,25.40
2018-12-07T06:17:08.703Z,23.27
2018-12-07T06:19:37.980Z,23.37
2018-12-07T06:22:07.327Z,29.97
2018-12-07T06:24:36.659Z,23.85
2018-12-07T06:27:05.995Z,20.67
2018-12-07T06:29:35.294Z,16.87
2018-12-07T06:32:05.023Z,24.77
2018-12-07T06:34:33.964Z,16.48
2018-12-07T06:37:03.237Z,20.40
2018-12-07T06:39:32.548Z,23.43
2018-12-07T06:42:01.506Z,23.17
2018-12-07T06:44:30.761Z,18.63
2018-12-07T06:47:00.108Z,22.23
2018-12-07T06:49:29.087Z,21.37
2018-12-07T06:51:58.277Z,14.30
2018-12-07T06:54:27.232Z,18.30
2018-12-07T06:56:56.194Z,22.70
2018-12-07T06:59:25.752Z,16.23
2018-12-07T07:01:54.996Z,21.67
2018-12-07T07:04:24.283Z,22.00
2018-12-07T07:06:53.288Z,20.87
2018-12-07T07:09:22.531Z,23.90
2018-12-07T07:11:51.900Z,27.53
2018-12-07T07:14:20.815Z,20.70
2018-12-07T07:16:49.695Z,20.90
2018-12-07T07:19:18.487Z,21.07
2018-12-07T07:21:47.821Z,23.40
2018-12-07T07:24:17.176Z,16.53
2018-12-07T07:26:46.593Z,19.57
2018-12-07T07:29:15.541Z,16.57
2018-12-07T07:31:44.992Z,20.63
2018-12-07T07:34:14.311Z,18.63
2018-12-07T07:36:43.300Z,24.40
2018-12-07T07:39:12.163Z,20.70
2018-12-07T07:41:41.019Z,23.57
2018-12-07T07:44:10.369Z,22.77
2018-12-07T07:46:39.715Z,17.03
2018-12-07T07:49:08.625Z,22.53
2018-12-07T07:51:37.816Z,19.40
2018-12-07T07:54:07.105Z,27.27
2018-12-07T07:56:36.716Z,21.73
2018-12-07T07:59:05.619Z,19.57
2018-12-07T08:01:34.837Z,16.00
2018-12-07T08:04:04.276Z,20.17
2018-12-07T08:06:33.303Z,23.60
2018-12-07T08:09:02.159Z,23.73
2018-12-07T08:11:31.329Z,22.97
2018-12-07T08:14:00.245Z,24.40
2018-12-07T08:16:29.087Z,21.80
2018-12-07T08:18:57.882Z,30.23
2018-12-07T08:21:27.152Z,20.63
2018-12-07T08:23:56.692Z,19.73
2018-12-07T08:26:25.647Z,17.77
2018-12-07T08:28:54.494Z,26.43
2018-12-07T08:31:23.291Z,23.50
2018-12-07T08:33:52.504Z,28.13
2018-12-07T08:36:21.479Z,23.20
2018-12-07T08:38:50.290Z,28.70
2018-12-07T08:41:19.654Z,27.77
2018-12-07T08:43:48.885Z,25.93
2018-12-07T08:46:17.791Z,30.37
2018-12-07T08:48:46.760Z,26.10
2018-12-07T08:51:15.786Z,30.33
2018-12-07T08:53:45.015Z,26.60
2018-12-07T08:56:13.919Z,33.33
2018-12-07T08:58:43.095Z,29.37
2018-12-07T09:01:12.892Z,37.37
2018-12-07T09:03:42.812Z,35.63
2018-12-07T09:06:13.018Z,38.40
2018-12-07T09:08:42.521Z,31.97
2018-12-07T09:13:59.094Z,33.50
2018-12-07T09:16:28.037Z,27.48
2018-12-07T09:18:56.875Z,25.40
2018-12-07T09:21:26.156Z,42.73
2018-12-07T09:23:55.517Z,39.43
2018-12-07T09:26:24.839Z,27.90
2018-12-07T09:28:54.123Z,33.60
2018-12-07T09:31:23.412Z,34.77
2018-12-07T09:33:52.408Z,38.83
2018-12-07T09:36:21.635Z,35.33
2018-12-07T09:38:50.491Z,30.40
2018-12-07T09:41:19.747Z,26.90
2018-12-07T09:43:49.080Z,30.40
2018-12-07T09:46:18.467Z,36.30
2018-12-07T09:48:47.407Z,32.50
2018-12-07T09:51:16.645Z,42.50
2018-12-07T09:53:45.987Z,28.97
2018-12-07T09:56:15.403Z,31.03
2018-12-07T09:58:44.784Z,38.67
2018-12-07T10:01:14.181Z,30.50
2018-12-07T10:03:43.487Z,32.83
2018-12-07T10:06:12.473Z,37.60
2018-12-07T10:08:41.322Z,28.27
2018-12-07T10:11:10.162Z,32.50
2018-12-07T10:13:39.467Z,25.87
2018-12-07T10:16:08.656Z,34.10
2018-12-07T10:18:37.987Z,33.18
2018-12-07T10:21:07.276Z,25.00
2018-12-07T10:23:36.203Z,28.90
2018-12-07T10:26:05.450Z,37.17
2018-12-07T10:28:34.478Z,44.07
2018-12-07T10:31:03.659Z,31.17
2018-12-07T10:33:32.555Z,30.73
2018-12-07T10:36:01.790Z,32.93
2018-12-07T10:38:30.655Z,31.50
2018-12-07T10:40:59.507Z,26.73
2018-12-07T10:43:28.439Z,28.90
2018-12-07T10:45:57.667Z,28.77
2018-12-07T10:48:27.023Z,30.88
2018-12-07T10:50:56.350Z,27.10
2018-12-07T10:53:25.793Z,36.10
2018-12-07T10:55:54.723Z,41.77
2018-12-07T10:58:23.598Z,33.53
2018-12-07T11:00:58.062Z,34.27
2018-12-07T11:03:32.945Z,23.43
2018-12-07T11:06:07.639Z,33.37
2018-12-07T11:08:42.107Z,13.30
2018-12-07T11:11:16.167Z,9.67
2018-12-07T11:13:50.799Z,8.10
2018-12-07T11:16:24.939Z,5.47
2018-12-07T11:18:59.862Z,6.90
2018-12-07T11:21:35.208Z,6.20
2018-12-07T11:24:11.747Z,7.63
2018-12-07T11:26:46.367Z,10.40
2018-12-07T11:29:19.598Z,7.97
2018-12-07T11:31:53.758Z,13.30
2018-12-07T11:34:27.086Z,8.70
2018-12-07T11:36:57.220Z,14.50
2018-12-07T11:39:26.710Z,11.95
2018-12-07T11:41:56.018Z,16.50
2018-12-07T11:44:25.815Z,13.50
2018-12-07T11:46:55.153Z,13.93
2018-12-07T11:49:30.582Z,16.82
2018-12-07T11:52:00.406Z,11.57
2018-12-07T11:54:29.926Z,14.60
2018-12-07T11:56:59.807Z,10.47
2018-12-07T11:59:29.189Z,17.60
2018-12-07T12:01:58.576Z,13.60
2018-12-07T12:04:28.004Z,23.43
2018-12-07T12:06:56.990Z,15.17
2018-12-07T12:09:25.915Z,19.03
2018-12-07T12:11:55.163Z,11.57
2018-12-07T12:14:24.463Z,16.07
2018-12-07T12:16:53.813Z,17.43
2018-12-07T12:19:22.728Z,22.93
2018-12-07T12:21:51.555Z,26.73
2018-12-07T12:24:20.355Z,19.33
2018-12-07T12:26:49.183Z,17.33
2018-12-07T12:29:18.149Z,27.70
2018-12-07T12:31:47.012Z,18.67
2018-12-07T12:34:15.816Z,18.30
2018-12-07T12:36:45.132Z,17.53
2018-12-07T12:39:14.441Z,16.80
2018-12-07T12:41:46.859Z,13.93
2018-12-07T12:44:15.159Z,13.40
2018-12-07T12:46:44.156Z,16.77
2018-12-07T12:49:13.767Z,16.37
2018-12-07T12:51:42.651Z,18.47
2018-12-07T12:54:11.591Z,19.53
2018-12-07T12:56:40.843Z,19.43
2018-12-07T12:59:09.867Z,13.45
2018-12-07T13:01:39.231Z,17.60
2018-12-07T13:04:08.662Z,16.13
2018-12-07T13:06:38.028Z,15.43
2018-12-07T13:09:07.770Z,14.27
2018-12-07T13:11:37.017Z,17.80
2018-12-07T13:14:05.983Z,17.23
2018-12-07T13:16:35.561Z,16.87
2018-12-07T13:19:04.986Z,14.43
2018-12-07T13:21:34.308Z,14.53
2018-12-07T13:24:03.238Z,22.63
2018-12-07T13:26:32.099Z,10.00
2018-12-07T13:29:00.953Z,16.03
2018-12-07T13:31:29.827Z,18.77
2018-12-07T13:33:59.140Z,14.70
2018-12-07T13:36:28.699Z,14.53
2018-12-07T13:38:57.977Z,13.87
2018-12-07T13:41:27.625Z,13.97
2018-12-07T13:43:56.983Z,14.17
2018-12-07T13:46:26.485Z,10.00
2018-12-07T13:48:55.562Z,7.73
2018-12-07T13:51:24.544Z,6.55
2018-12-07T13:53:54.153Z,10.70
2018-12-07T13:56:23.141Z,5.60
2018-12-07T13:58:52.056Z,6.30
2018-12-07T14:01:21.701Z,6.60
2018-12-07T14:03:51.110Z,5.72
2018-12-07T14:06:21.127Z,6.07
2018-12-07T14:08:50.636Z,6.43
2018-12-07T14:11:21.069Z,5.00
2018-12-07T14:13:50.436Z,6.33
2018-12-07T14:16:20.264Z,13.87
2018-12-07T14:18:49.532Z,10.83
2018-12-07T14:21:19.116Z,13.90
2018-12-07T14:23:48.681Z,9.83
2018-12-07T14:26:17.876Z,10.17
2018-12-07T14:28:47.228Z,13.70
2018-12-07T14:31:16.585Z,7.83
2018-12-07T14:33:46.074Z,9.17
2018-12-07T14:36:15.863Z,8.73
2018-12-07T14:38:44.966Z,15.03
2018-12-07T14:41:14.470Z,9.60
2018-12-07T14:43:43.723Z,10.98
2018-12-07T14:46:13.247Z,9.97
2018-12-07T14:48:42.260Z,14.03
2018-12-07T14:51:11.175Z,10.63
2018-12-07T14:53:40.421Z,17.37
2018-12-07T14:56:09.570Z,16.53
2018-12-07T14:58:38.901Z,12.07
2018-12-07T15:01:07.954Z,13.07
2018-12-07T15:03:37.221Z,11.57
2018-12-07T15:06:06.857Z,12.87
2018-12-07T15:08:36.121Z,13.08
2018-12-07T15:11:05.338Z,12.50
2018-12-07T15:13:34.393Z,11.93
2018-12-07T15:16:03.924Z,7.40
2018-12-07T15:18:33.076Z,16.17
2018-12-07T15:21:02.336Z,12.27
2018-12-07T15:23:31.303Z,13.30
2018-12-07T15:26:00.295Z,10.57
2018-12-07T15:28:29.726Z,8.73
2018-12-07T15:30:58.970Z,14.10
2018-12-07T15:33:27.935Z,12.33
2018-12-07T15:35:56.835Z,6.57
2018-12-07T15:38:25.751Z,8.00
2018-12-07T15:40:55.453Z,12.50
2018-12-07T15:43:25.234Z,7.23
2018-12-07T15:45:54.833Z,7.70
2018-12-07T15:48:24.187Z,10.30
2018-12-07T15:50:53.321Z,10.60
2018-12-07T15:53:22.319Z,10.33
2018-12-07T15:55:51.196Z,9.60
2018-12-07T15:58:20.329Z,12.07
2018-12-07T16:00:49.780Z,10.23
2018-12-07T16:03:19.635Z,8.60
2018-12-07T16:05:49.117Z,8.93
2018-12-07T16:08:24.909Z,8.57
2018-12-07T16:10:49.647Z,13.00
2018-12-07T16:13:19.042Z,6.17
2018-12-07T16:15:48.450Z,9.40
2018-12-07T16:18:17.622Z,11.73
2018-12-07T16:20:46.547Z,17.70
2018-12-07T16:23:16.085Z,12.70
2018-12-07T16:25:45.090Z,10.93
2018-12-07T16:28:14.468Z,8.70
2018-12-07T16:30:43.972Z,6.03
2018-12-07T16:33:13.467Z,9.67
2018-12-07T16:35:43.075Z,10.80
2018-12-07T16:38:12.632Z,9.77
2018-12-07T16:40:42.150Z,11.63
2018-12-07T16:43:11.252Z,12.63
2018-12-07T16:45:40.560Z,12.27
2018-12-07T16:48:10.016Z,11.20
2018-12-07T16:50:39.513Z,16.20
2018-12-07T16:53:09.043Z,9.07
2018-12-07T16:55:39.368Z,10.77
2018-12-07T16:58:08.477Z,15.93
2018-12-07T17:00:38.301Z,14.93
2018-12-07T17:03:07.379Z,9.00
2018-12-07T17:05:36.685Z,14.60
2018-12-07T17:08:06.186Z,16.67
2018-12-07T17:10:35.749Z,11.88
2018-12-07T17:13:04.718Z,5.83
2018-12-07T17:15:34.218Z,14.90
2018-12-07T17:18:03.630Z,7.27
2018-12-07T17:20:32.703Z,13.80
2018-12-07T17:23:02.013Z,7.40
2018-12-07T17:25:31.162Z,12.47
2018-12-07T17:28:00.155Z,15.50
2018-12-07T17:30:29.461Z,11.47
2018-12-07T17:32:58.645Z,17.53
2018-12-07T17:35:27.947Z,10.10
2018-12-07T17:37:57.212Z,8.23
2018-12-07T17:40:26.481Z,13.00
2018-12-07T17:42:55.595Z,8.07
2018-12-07T17:45:25.129Z,15.20
2018-12-07T17:47:54.800Z,12.37
2018-12-07T17:50:24.330Z,12.23
2018-12-07T17:52:55.487Z,13.17
2018-12-07T17:55:24.819Z,13.13
2018-12-07T17:57:54.365Z,14.37
2018-12-07T18:00:23.444Z,16.20
2018-12-07T18:02:52.875Z,14.87
2018-12-07T18:05:21.948Z,12.63
2018-12-07T18:07:51.179Z,14.67
2018-12-07T18:10:20.199Z,13.33
2018-12-07T18:12:49.346Z,11.70
2018-12-07T18:15:18.886Z,11.07
2018-12-07T18:17:48.400Z,12.87
2018-12-07T18:20:17.647Z,14.10
2018-12-07T18:22:47.089Z,17.57
2018-12-07T18:25:16.491Z,11.40
2018-12-07T18:27:45.887Z,10.83
2018-12-07T18:30:14.871Z,12.60
2018-12-07T18:32:44.383Z,12.27
2018-12-07T18:35:13.463Z,11.03
2018-12-07T18:37:43.092Z,11.43
2018-12-07T18:40:12.366Z,14.43
2018-12-07T18:42:41.306Z,13.87
2018-12-07T18:45:10.559Z,15.33
2018-12-07T18:47:39.581Z,15.13
2018-12-07T18:50:08.756Z,12.80
2018-12-07T18:52:38.264Z,14.27
2018-12-07T18:55:08.498Z,11.67
2018-12-07T18:57:37.700Z,12.07
2018-12-07T19:00:07.624Z,11.10
2018-12-07T19:02:37.118Z,15.80
2018-12-07T19:05:07.101Z,12.47
2018-12-07T19:07:36.643Z,11.77
2018-12-07T19:10:06.827Z,17.27
2018-12-07T19:12:36.237Z,17.43
2018-12-07T19:15:06.452Z,18.33
2018-12-07T19:17:35.927Z,12.07
2018-12-07T19:20:05.671Z,11.87
2018-12-07T19:22:34.965Z,13.17
2018-12-07T19:25:04.112Z,12.77
2018-12-07T19:27:33.424Z,13.83
2018-12-07T19:30:02.748Z,11.47
2018-12-07T19:32:32.329Z,12.77
2018-12-07T19:35:01.423Z,11.87
2018-12-07T19:37:30.675Z,11.73
2018-12-07T19:40:00.169Z,13.03
2018-12-07T19:42:29.671Z,17.05
2018-12-07T19:44:59.185Z,20.67
2018-12-07T19:47:28.170Z,14.37
2018-12-07T19:49:57.199Z,8.37
2018-12-07T19:52:26.687Z,12.85
2018-12-07T19:54:56.289Z,10.80
2018-12-07T19:57:25.873Z,14.73
2018-12-07T19:59:55.510Z,12.80
2018-12-07T20:02:24.887Z,10.23
2018-12-07T20:04:54.419Z,10.60
2018-12-07T20:07:23.447Z,9.80
2018-12-07T20:09:52.462Z,12.30
2018-12-07T20:12:22.041Z,12.47
2018-12-07T20:14:51.170Z,7.53
2018-12-07T20:17:20.675Z,7.97
2018-12-07T20:19:50.390Z,8.33
2018-12-07T20:22:19.951Z,11.67
2018-12-07T20:24:49.409Z,11.43
2018-12-07T20:27:19.742Z,12.00
2018-12-07T20:29:49.134Z,9.77
2018-12-07T20:32:19.380Z,11.60
2018-12-07T20:34:48.838Z,16.13
2018-12-07T20:37:18.810Z,12.10
2018-12-07T20:39:47.991Z,10.10
2018-12-07T20:42:18.090Z,13.80
2018-12-07T20:44:47.335Z,12.70
2018-12-07T20:47:24.583Z,8.93
2018-12-07T20:49:47.114Z,19.50
2018-12-07T20:52:16.097Z,17.50
2018-12-07T20:54:45.505Z,13.73
2018-12-07T20:57:15.428Z,9.20
2018-12-07T20:59:45.098Z,11.70
2018-12-07T21:02:14.562Z,13.47
2018-12-07T21:04:43.983Z,16.12
2018-12-07T21:09:34.164Z,16.03
2018-12-07T21:12:13.173Z,21.37
2018-12-07T21:14:45.246Z,19.13
2018-12-07T21:17:32.743Z,13.67
2018-12-07T21:20:07.568Z,16.23
2018-12-07T21:22:37.020Z,19.77
2018-12-07T21:25:07.052Z,10.30
2018-12-07T21:27:36.351Z,12.47
2018-12-07T21:31:14.295Z,11.63
2018-12-07T21:33:49.428Z,17.77
2018-12-07T21:36:42.206Z,14.00
2018-12-07T21:39:14.321Z,11.97
2018-12-07T21:41:43.800Z,14.33
2018-12-07T21:44:12.943Z,12.80
2018-12-07T21:46:42.178Z,13.87
2018-12-07T21:49:11.529Z,17.70
2018-12-07T21:51:50.221Z,16.33
2018-12-07T21:54:19.947Z,16.50
2018-12-07T21:56:49.534Z,20.03
2018-12-07T21:59:19.333Z,13.07
2018-12-07T22:01:48.737Z,18.07
2018-12-07T22:04:18.832Z,16.63
2018-12-07T22:06:48.332Z,17.90
2018-12-07T22:09:18.390Z,13.03
2018-12-07T22:11:47.219Z,13.37
2018-12-07T22:14:16.934Z,14.57
2018-12-07T22:16:45.895Z,13.77
2018-12-07T22:19:15.047Z,20.03
2018-12-07T22:21:44.371Z,20.60
2018-12-07T22:24:13.709Z,15.67
2018-12-07T22:26:42.617Z,18.03
2018-12-07T22:29:11.452Z,16.15
2018-12-07T22:31:40.301Z,17.00
2018-12-07T22:34:09.705Z,21.37
2018-12-07T22:36:39.284Z,19.87
2018-12-07T22:39:08.883Z,17.37
2018-12-07T22:41:38.046Z,17.53
2018-12-07T22:44:07.682Z,20.80
2018-12-07T22:46:37.254Z,19.07
2018-12-07T22:49:06.918Z,16.57
2018-12-07T22:51:36.410Z,21.37
2018-12-07T22:54:05.836Z,19.00
2018-12-07T22:56:34.822Z,20.67
2018-12-07T22:59:06.148Z,16.00
2018-12-07T23:01:35.728Z,22.90
2018-12-07T23:04:05.154Z,20.00
2018-12-07T23:06:34.619Z,18.47
2018-12-07T23:09:05.464Z,21.60
2018-12-07T23:11:34.802Z,19.23
2018-12-07T23:14:04.269Z,20.00
2018-12-07T23:16:33.623Z,19.37
2018-12-07T23:19:03.559Z,21.53
2018-12-07T23:21:32.396Z,23.70
2018-12-07T23:24:01.684Z,17.13
2018-12-07T23:26:30.623Z,30.10
2018-12-07T23:28:59.840Z,26.83
2018-12-07T23:31:29.229Z,27.93
2018-12-07T23:33:58.791Z,24.27
2018-12-07T23:36:27.715Z,23.35
2018-12-07T23:38:56.652Z,26.77
2018-12-07T23:41:25.499Z,22.67
2018-12-07T23:43:54.804Z,22.33
2018-12-07T23:46:24.316Z,24.23
2018-12-07T23:48:53.791Z,24.80
2018-12-07T23:51:22.745Z,26.40
2018-12-07T23:53:51.954Z,22.00
2018-12-07T23:56:21.491Z,19.85
2018-12-07T23:58:50.495Z,15.03
